sensor_id;sensor_type;location;lat;lon;timestamp;P1;durP1;ratioP1;P2;durP2;ratioP2
61020;SDS011;66055;43.496;3.710;2022-12-29T00:02:08;25.83;;;13.00;;
61020;SDS011;66055;43.496;3.710;2022-12-29T00:04:33;23.48;;;13.98;;
61020;SDS011;66055;43.496;3.710;2022-12-29T00:06:59;25.58;;;13.15;;
61020;SDS011;66055;43.496;3.710;2022-12-29T00:09:25;27.85;;;15.38;;
61020;SDS011;66055;43.496;3.710;2022-12-29T00:11:51;23.20;;;14.90;;
61020;SDS011;66055;43.496;3.710;2022-12-29T00:14:17;19.63;;;13.80;;
61020;SDS011;66055;43.496;3.710;2022-12-29T00:17:02;19.48;;;13.85;;
61020;SDS011;66055;43.496;3.710;2022-12-29T00:19:27;19.08;;;13.73;;
61020;SDS011;66055;43.496;3.710;2022-12-29T00:22:12;18.55;;;12.70;;
61020;SDS011;66055;43.496;3.710;2022-12-29T00:24:58;23.35;;;13.77;;
61020;SDS011;66055;43.496;3.710;2022-12-29T00:27:30;21.00;;;13.10;;
61020;SDS011;66055;43.496;3.710;2022-12-29T00:30:16;21.77;;;13.93;;
61020;SDS011;66055;43.496;3.710;2022-12-29T00:33:11;20.67;;;13.75;;
61020;SDS011;66055;43.496;3.710;2022-12-29T00:36:01;20.73;;;13.43;;
61020;SDS011;66055;43.496;3.710;2022-12-29T00:38:35;19.13;;;12.55;;
61020;SDS011;66055;43.496;3.710;2022-12-29T00:41:22;22.00;;;13.45;;
61020;SDS011;66055;43.496;3.710;2022-12-29T00:44:07;20.95;;;12.95;;
61020;SDS011;66055;43.496;3.710;2022-12-29T00:46:38;24.02;;;13.30;;
61020;SDS011;66055;43.496;3.710;2022-12-29T00:49:05;19.65;;;12.75;;
61020;SDS011;66055;43.496;3.710;2022-12-29T00:51:51;21.42;;;13.57;;
61020;SDS011;66055;43.496;3.710;2022-12-29T00:54:17;28.30;;;13.90;;
61020;SDS011;66055;43.496;3.710;2022-12-29T00:56:42;22.10;;;12.23;;
61020;SDS011;66055;43.496;3.710;2022-12-29T00:59:10;23.58;;;12.68;;
61020;SDS011;66055;43.496;3.710;2022-12-29T01:04:02;23.33;;;13.43;;
61020;SDS011;66055;43.496;3.710;2022-12-29T01:06:28;19.85;;;12.93;;
61020;SDS011;66055;43.496;3.710;2022-12-29T01:08:54;21.73;;;13.30;;
61020;SDS011;66055;43.496;3.710;2022-12-29T01:11:38;20.67;;;12.10;;
61020;SDS011;66055;43.496;3.710;2022-12-29T01:14:04;22.65;;;12.50;;
61020;SDS011;66055;43.496;3.710;2022-12-29T01:16:30;22.95;;;14.30;;
61020;SDS011;66055;43.496;3.710;2022-12-29T01:18:56;20.95;;;13.15;;
61020;SDS011;66055;43.496;3.710;2022-12-29T01:23:48;19.73;;;13.68;;
61020;SDS011;66055;43.496;3.710;2022-12-29T01:26:14;19.92;;;13.57;;
61020;SDS011;66055;43.496;3.710;2022-12-29T01:28:41;18.17;;;12.63;;
61020;SDS011;66055;43.496;3.710;2022-12-29T01:31:07;23.25;;;14.23;;
61020;SDS011;66055;43.496;3.710;2022-12-29T01:33:34;20.83;;;14.30;;
61020;SDS011;66055;43.496;3.710;2022-12-29T01:36:03;21.63;;;13.90;;
61020;SDS011;66055;43.496;3.710;2022-12-29T01:38:31;20.95;;;13.48;;
61020;SDS011;66055;43.496;3.710;2022-12-29T01:43:39;20.58;;;12.85;;
61020;SDS011;66055;43.496;3.710;2022-12-29T01:51:38;22.75;;;12.55;;
61020;SDS011;66055;43.496;3.710;2022-12-29T01:54:13;18.45;;;12.73;;
61020;SDS011;66055;43.496;3.710;2022-12-29T01:56:47;22.70;;;13.23;;
61020;SDS011;66055;43.496;3.710;2022-12-29T01:59:16;20.42;;;13.10;;
61020;SDS011;66055;43.496;3.710;2022-12-29T02:01:46;23.60;;;12.88;;
61020;SDS011;66055;43.496;3.710;2022-12-29T02:04:12;20.95;;;13.02;;
61020;SDS011;66055;43.496;3.710;2022-12-29T02:09:11;20.27;;;12.23;;
61020;SDS011;66055;43.496;3.710;2022-12-29T02:11:36;21.73;;;14.23;;
61020;SDS011;66055;43.496;3.710;2022-12-29T02:14:11;19.58;;;12.95;;
61020;SDS011;66055;43.496;3.710;2022-12-29T02:30:29;23.30;;;13.35;;
61020;SDS011;66055;43.496;3.710;2022-12-29T02:43:59;20.30;;;12.20;;
61020;SDS011;66055;43.496;3.710;2022-12-29T02:49:12;20.75;;;11.82;;
61020;SDS011;66055;43.496;3.710;2022-12-29T02:52:30;21.58;;;12.38;;
61020;SDS011;66055;43.496;3.710;2022-12-29T02:54:48;19.77;;;12.80;;
61020;SDS011;66055;43.496;3.710;2022-12-29T03:00:02;19.90;;;12.20;;
61020;SDS011;66055;43.496;3.710;2022-12-29T03:10:49;26.33;;;13.73;;
61020;SDS011;66055;43.496;3.710;2022-12-29T03:19:00;23.30;;;13.77;;
61020;SDS011;66055;43.496;3.710;2022-12-29T03:21:35;22.67;;;14.27;;
61020;SDS011;66055;43.496;3.710;2022-12-29T03:24:25;25.95;;;14.13;;
61020;SDS011;66055;43.496;3.710;2022-12-29T03:26:55;27.63;;;13.05;;
61020;SDS011;66055;43.496;3.710;2022-12-29T03:29:24;21.25;;;13.65;;
61020;SDS011;66055;43.496;3.710;2022-12-29T03:31:53;20.77;;;12.93;;
61020;SDS011;66055;43.496;3.710;2022-12-29T03:34:20;23.80;;;14.15;;
61020;SDS011;66055;43.496;3.710;2022-12-29T03:36:57;24.85;;;13.88;;
61020;SDS011;66055;43.496;3.710;2022-12-29T03:39:35;24.27;;;14.02;;
61020;SDS011;66055;43.496;3.710;2022-12-29T03:42:03;21.20;;;14.38;;
61020;SDS011;66055;43.496;3.710;2022-12-29T03:44:32;23.45;;;13.35;;
61020;SDS011;66055;43.496;3.710;2022-12-29T03:47:01;23.73;;;12.98;;
61020;SDS011;66055;43.496;3.710;2022-12-29T03:51:53;23.98;;;12.30;;
61020;SDS011;66055;43.496;3.710;2022-12-29T03:54:18;18.15;;;11.90;;
61020;SDS011;66055;43.496;3.710;2022-12-29T03:56:44;20.08;;;12.93;;
61020;SDS011;66055;43.496;3.710;2022-12-29T03:59:10;24.00;;;12.10;;
61020;SDS011;66055;43.496;3.710;2022-12-29T04:01:35;19.88;;;12.10;;
61020;SDS011;66055;43.496;3.710;2022-12-29T04:04:01;20.60;;;11.65;;
61020;SDS011;66055;43.496;3.710;2022-12-29T04:06:27;16.48;;;11.30;;
61020;SDS011;66055;43.496;3.710;2022-12-29T04:08:52;18.55;;;12.13;;
61020;SDS011;66055;43.496;3.710;2022-12-29T04:11:18;18.70;;;11.07;;
61020;SDS011;66055;43.496;3.710;2022-12-29T04:13:44;21.50;;;11.95;;
61020;SDS011;66055;43.496;3.710;2022-12-29T04:16:10;18.00;;;11.27;;
61020;SDS011;66055;43.496;3.710;2022-12-29T04:18:36;20.27;;;11.65;;
61020;SDS011;66055;43.496;3.710;2022-12-29T04:21:01;19.58;;;10.52;;
61020;SDS011;66055;43.496;3.710;2022-12-29T04:23:31;21.75;;;12.10;;
61020;SDS011;66055;43.496;3.710;2022-12-29T04:25:59;19.52;;;10.43;;
61020;SDS011;66055;43.496;3.710;2022-12-29T04:28:25;21.92;;;11.15;;
61020;SDS011;66055;43.496;3.710;2022-12-29T04:30:51;23.33;;;11.15;;
61020;SDS011;66055;43.496;3.710;2022-12-29T04:33:16;18.80;;;11.77;;
61020;SDS011;66055;43.496;3.710;2022-12-29T04:35:43;19.65;;;10.68;;
61020;SDS011;66055;43.496;3.710;2022-12-29T04:38:09;22.75;;;11.55;;
61020;SDS011;66055;43.496;3.710;2022-12-29T04:40:35;21.20;;;11.57;;
61020;SDS011;66055;43.496;3.710;2022-12-29T04:43:02;19.15;;;11.07;;
61020;SDS011;66055;43.496;3.710;2022-12-29T04:45:28;15.30;;;11.88;;
61020;SDS011;66055;43.496;3.710;2022-12-29T04:47:53;24.35;;;11.75;;
61020;SDS011;66055;43.496;3.710;2022-12-29T04:50:19;21.33;;;11.38;;
61020;SDS011;66055;43.496;3.710;2022-12-29T04:52:45;18.05;;;11.05;;
61020;SDS011;66055;43.496;3.710;2022-12-29T04:55:11;22.50;;;11.90;;
61020;SDS011;66055;43.496;3.710;2022-12-29T04:57:36;24.05;;;11.32;;
61020;SDS011;66055;43.496;3.710;2022-12-29T05:00:03;17.27;;;11.07;;
61020;SDS011;66055;43.496;3.710;2022-12-29T05:02:29;18.35;;;11.05;;
61020;SDS011;66055;43.496;3.710;2022-12-29T05:04:54;22.27;;;12.02;;
61020;SDS011;66055;43.496;3.710;2022-12-29T05:07:20;18.20;;;11.73;;
61020;SDS011;66055;43.496;3.710;2022-12-29T05:09:46;21.58;;;11.80;;
61020;SDS011;66055;43.496;3.710;2022-12-29T05:12:11;21.13;;;10.40;;
61020;SDS011;66055;43.496;3.710;2022-12-29T05:14:37;21.25;;;11.35;;
61020;SDS011;66055;43.496;3.710;2022-12-29T05:17:03;19.10;;;11.10;;
61020;SDS011;66055;43.496;3.710;2022-12-29T05:19:29;19.90;;;11.52;;
61020;SDS011;66055;43.496;3.710;2022-12-29T05:21:54;19.40;;;11.30;;
61020;SDS011;66055;43.496;3.710;2022-12-29T05:24:20;18.77;;;11.40;;
61020;SDS011;66055;43.496;3.710;2022-12-29T05:26:46;25.40;;;12.13;;
61020;SDS011;66055;43.496;3.710;2022-12-29T05:29:11;19.13;;;11.18;;
61020;SDS011;66055;43.496;3.710;2022-12-29T05:31:37;16.95;;;10.95;;
61020;SDS011;66055;43.496;3.710;2022-12-29T05:34:03;17.35;;;11.15;;
61020;SDS011;66055;43.496;3.710;2022-12-29T05:36:28;16.05;;;10.57;;
61020;SDS011;66055;43.496;3.710;2022-12-29T05:38:54;21.85;;;11.32;;
61020;SDS011;66055;43.496;3.710;2022-12-29T05:41:20;17.48;;;10.02;;
61020;SDS011;66055;43.496;3.710;2022-12-29T05:43:46;17.15;;;10.23;;
61020;SDS011;66055;43.496;3.710;2022-12-29T05:46:11;16.05;;;11.00;;
61020;SDS011;66055;43.496;3.710;2022-12-29T05:48:37;18.33;;;10.32;;
61020;SDS011;66055;43.496;3.710;2022-12-29T05:51:03;19.52;;;10.13;;
61020;SDS011;66055;43.496;3.710;2022-12-29T05:53:28;20.52;;;10.65;;
61020;SDS011;66055;43.496;3.710;2022-12-29T05:55:54;18.92;;;10.93;;
61020;SDS011;66055;43.496;3.710;2022-12-29T05:58:20;14.32;;;10.20;;
61020;SDS011;66055;43.496;3.710;2022-12-29T06:00:45;16.73;;;10.68;;
61020;SDS011;66055;43.496;3.710;2022-12-29T06:03:11;16.92;;;10.32;;
61020;SDS011;66055;43.496;3.710;2022-12-29T06:05:37;20.60;;;10.48;;
61020;SDS011;66055;43.496;3.710;2022-12-29T06:08:02;19.83;;;10.93;;
61020;SDS011;66055;43.496;3.710;2022-12-29T06:12:54;20.42;;;10.75;;
61020;SDS011;66055;43.496;3.710;2022-12-29T06:15:20;17.60;;;10.43;;
61020;SDS011;66055;43.496;3.710;2022-12-29T06:17:45;28.10;;;11.15;;
61020;SDS011;66055;43.496;3.710;2022-12-29T06:20:11;20.77;;;10.98;;
61020;SDS011;66055;43.496;3.710;2022-12-29T06:22:37;22.15;;;11.07;;
61020;SDS011;66055;43.496;3.710;2022-12-29T06:25:03;18.42;;;11.18;;
61020;SDS011;66055;43.496;3.710;2022-12-29T06:27:30;17.15;;;10.98;;
61020;SDS011;66055;43.496;3.710;2022-12-29T06:32:22;24.20;;;12.02;;
61020;SDS011;66055;43.496;3.710;2022-12-29T06:34:47;21.50;;;11.40;;
61020;SDS011;66055;43.496;3.710;2022-12-29T06:37:13;31.90;;;13.10;;
61020;SDS011;66055;43.496;3.710;2022-12-29T06:39:39;25.63;;;14.43;;
61020;SDS011;66055;43.496;3.710;2022-12-29T06:42:05;30.35;;;16.65;;
61020;SDS011;66055;43.496;3.710;2022-12-29T06:44:31;28.95;;;14.85;;
61020;SDS011;66055;43.496;3.710;2022-12-29T06:46:57;25.85;;;16.30;;
61020;SDS011;66055;43.496;3.710;2022-12-29T06:49:22;26.88;;;13.00;;
61020;SDS011;66055;43.496;3.710;2022-12-29T06:51:48;21.95;;;13.30;;
61020;SDS011;66055;43.496;3.710;2022-12-29T06:54:14;19.10;;;10.27;;
61020;SDS011;66055;43.496;3.710;2022-12-29T06:59:05;35.78;;;13.95;;
61020;SDS011;66055;43.496;3.710;2022-12-29T07:01:31;22.90;;;12.50;;
61020;SDS011;66055;43.496;3.710;2022-12-29T07:03:57;22.70;;;11.50;;
61020;SDS011;66055;43.496;3.710;2022-12-29T07:06:23;17.70;;;9.70;;
61020;SDS011;66055;43.496;3.710;2022-12-29T07:08:49;30.83;;;12.52;;
61020;SDS011;66055;43.496;3.710;2022-12-29T07:13:40;23.17;;;12.15;;
61020;SDS011;66055;43.496;3.710;2022-12-29T07:16:06;24.00;;;12.18;;
61020;SDS011;66055;43.496;3.710;2022-12-29T07:18:33;22.42;;;12.48;;
61020;SDS011;66055;43.496;3.710;2022-12-29T07:20:59;23.45;;;13.82;;
61020;SDS011;66055;43.496;3.710;2022-12-29T07:23:25;20.50;;;12.27;;
61020;SDS011;66055;43.496;3.710;2022-12-29T07:25:58;21.17;;;10.65;;
61020;SDS011;66055;43.496;3.710;2022-12-29T07:30:53;23.13;;;11.57;;
61020;SDS011;66055;43.496;3.710;2022-12-29T07:33:19;19.33;;;10.30;;
61020;SDS011;66055;43.496;3.710;2022-12-29T07:35:44;17.90;;;10.13;;
61020;SDS011;66055;43.496;3.710;2022-12-29T07:38:10;20.80;;;10.95;;
61020;SDS011;66055;43.496;3.710;2022-12-29T07:40:36;20.50;;;11.63;;
61020;SDS011;66055;43.496;3.710;2022-12-29T07:43:02;20.60;;;11.65;;
61020;SDS011;66055;43.496;3.710;2022-12-29T07:45:29;27.65;;;12.02;;
61020;SDS011;66055;43.496;3.710;2022-12-29T07:47:55;22.60;;;11.73;;
61020;SDS011;66055;43.496;3.710;2022-12-29T07:50:20;24.67;;;12.05;;
61020;SDS011;66055;43.496;3.710;2022-12-29T07:52:46;26.90;;;12.43;;
61020;SDS011;66055;43.496;3.710;2022-12-29T07:55:13;22.88;;;12.10;;
61020;SDS011;66055;43.496;3.710;2022-12-29T07:57:39;22.88;;;12.82;;
61020;SDS011;66055;43.496;3.710;2022-12-29T08:00:05;23.15;;;13.20;;
61020;SDS011;66055;43.496;3.710;2022-12-29T08:02:31;23.63;;;12.65;;
61020;SDS011;66055;43.496;3.710;2022-12-29T08:04:57;26.48;;;12.90;;
61020;SDS011;66055;43.496;3.710;2022-12-29T08:07:22;23.98;;;13.07;;
61020;SDS011;66055;43.496;3.710;2022-12-29T08:09:48;27.55;;;12.77;;
61020;SDS011;66055;43.496;3.710;2022-12-29T08:12:14;23.00;;;13.18;;
61020;SDS011;66055;43.496;3.710;2022-12-29T08:14:39;32.97;;;17.50;;
61020;SDS011;66055;43.496;3.710;2022-12-29T08:17:05;28.20;;;17.13;;
61020;SDS011;66055;43.496;3.710;2022-12-29T08:19:31;19.90;;;13.07;;
61020;SDS011;66055;43.496;3.710;2022-12-29T08:21:56;25.02;;;16.20;;
61020;SDS011;66055;43.496;3.710;2022-12-29T08:24:22;22.05;;;12.90;;
61020;SDS011;66055;43.496;3.710;2022-12-29T08:26:48;23.88;;;12.07;;
61020;SDS011;66055;43.496;3.710;2022-12-29T08:29:13;25.30;;;14.98;;
61020;SDS011;66055;43.496;3.710;2022-12-29T08:31:39;28.77;;;14.75;;
61020;SDS011;66055;43.496;3.710;2022-12-29T08:34:04;24.02;;;14.73;;
61020;SDS011;66055;43.496;3.710;2022-12-29T08:36:30;19.67;;;11.18;;
61020;SDS011;66055;43.496;3.710;2022-12-29T08:38:56;22.25;;;11.20;;
61020;SDS011;66055;43.496;3.710;2022-12-29T08:41:22;19.90;;;11.45;;
61020;SDS011;66055;43.496;3.710;2022-12-29T08:43:48;30.30;;;19.25;;
61020;SDS011;66055;43.496;3.710;2022-12-29T08:46:14;35.60;;;16.65;;
61020;SDS011;66055;43.496;3.710;2022-12-29T08:48:41;21.92;;;11.95;;
61020;SDS011;66055;43.496;3.710;2022-12-29T08:51:07;22.25;;;11.75;;
61020;SDS011;66055;43.496;3.710;2022-12-29T08:53:33;22.42;;;11.40;;
61020;SDS011;66055;43.496;3.710;2022-12-29T08:55:59;31.02;;;14.95;;
61020;SDS011;66055;43.496;3.710;2022-12-29T08:58:26;28.13;;;12.80;;
61020;SDS011;66055;43.496;3.710;2022-12-29T09:03:18;20.90;;;13.10;;
61020;SDS011;66055;43.496;3.710;2022-12-29T09:08:12;21.55;;;11.00;;
61020;SDS011;66055;43.496;3.710;2022-12-29T09:10:38;22.17;;;11.10;;
61020;SDS011;66055;43.496;3.710;2022-12-29T09:13:04;25.80;;;12.10;;
61020;SDS011;66055;43.496;3.710;2022-12-29T09:15:29;16.55;;;10.50;;
61020;SDS011;66055;43.496;3.710;2022-12-29T09:17:55;28.40;;;13.07;;
61020;SDS011;66055;43.496;3.710;2022-12-29T09:20:21;24.40;;;12.88;;
61020;SDS011;66055;43.496;3.710;2022-12-29T09:25:12;25.83;;;12.70;;
61020;SDS011;66055;43.496;3.710;2022-12-29T09:27:38;28.73;;;13.38;;
61020;SDS011;66055;43.496;3.710;2022-12-29T09:32:31;25.35;;;13.15;;
61020;SDS011;66055;43.496;3.710;2022-12-29T09:34:58;27.10;;;12.85;;
61020;SDS011;66055;43.496;3.710;2022-12-29T09:37:23;30.52;;;15.15;;
61020;SDS011;66055;43.496;3.710;2022-12-29T09:39:49;32.40;;;15.23;;
61020;SDS011;66055;43.496;3.710;2022-12-29T09:42:28;28.38;;;15.45;;
61020;SDS011;66055;43.496;3.710;2022-12-29T09:47:36;27.00;;;14.80;;
61020;SDS011;66055;43.496;3.710;2022-12-29T09:52:37;22.50;;;11.65;;
61020;SDS011;66055;43.496;3.710;2022-12-29T09:55:19;17.25;;;10.00;;
61020;SDS011;66055;43.496;3.710;2022-12-29T09:57:49;23.80;;;12.18;;
61020;SDS011;66055;43.496;3.710;2022-12-29T10:00:22;17.73;;;10.63;;
61020;SDS011;66055;43.496;3.710;2022-12-29T10:02:57;20.05;;;10.60;;
61020;SDS011;66055;43.496;3.710;2022-12-29T10:11:05;22.48;;;10.68;;
61020;SDS011;66055;43.496;3.710;2022-12-29T10:25:18;18.05;;;10.13;;
61020;SDS011;66055;43.496;3.710;2022-12-29T10:27:49;21.58;;;10.65;;
61020;SDS011;66055;43.496;3.710;2022-12-29T10:30:16;23.98;;;9.63;;
61020;SDS011;66055;43.496;3.710;2022-12-29T10:35:36;27.30;;;10.27;;
61020;SDS011;66055;43.496;3.710;2022-12-29T10:44:02;27.90;;;12.70;;
61020;SDS011;66055;43.496;3.710;2022-12-29T10:46:29;21.60;;;10.73;;
61020;SDS011;66055;43.496;3.710;2022-12-29T10:49:00;23.83;;;13.00;;
61020;SDS011;66055;43.496;3.710;2022-12-29T10:51:48;25.95;;;14.40;;
61020;SDS011;66055;43.496;3.710;2022-12-29T10:54:18;31.77;;;15.95;;
61020;SDS011;66055;43.496;3.710;2022-12-29T10:56:56;29.23;;;16.88;;
61020;SDS011;66055;43.496;3.710;2022-12-29T10:59:29;33.42;;;17.98;;
61020;SDS011;66055;43.496;3.710;2022-12-29T11:07:05;37.58;;;19.77;;
61020;SDS011;66055;43.496;3.710;2022-12-29T11:09:33;28.52;;;15.18;;
61020;SDS011;66055;43.496;3.710;2022-12-29T11:12:18;27.52;;;13.20;;
61020;SDS011;66055;43.496;3.710;2022-12-29T11:17:45;19.95;;;10.23;;
61020;SDS011;66055;43.496;3.710;2022-12-29T11:20:25;23.02;;;9.65;;
61020;SDS011;66055;43.496;3.710;2022-12-29T11:22:54;23.50;;;10.05;;
61020;SDS011;66055;43.496;3.710;2022-12-29T11:25:22;18.42;;;9.35;;
61020;SDS011;66055;43.496;3.710;2022-12-29T11:27:55;23.20;;;10.48;;
61020;SDS011;66055;43.496;3.710;2022-12-29T11:30:37;20.98;;;11.15;;
61020;SDS011;66055;43.496;3.710;2022-12-29T11:33:03;22.42;;;12.35;;
61020;SDS011;66055;43.496;3.710;2022-12-29T11:35:39;23.33;;;12.60;;
61020;SDS011;66055;43.496;3.710;2022-12-29T11:38:19;25.80;;;12.90;;
61020;SDS011;66055;43.496;3.710;2022-12-29T11:40:47;21.52;;;10.30;;
61020;SDS011;66055;43.496;3.710;2022-12-29T11:43:33;28.33;;;11.07;;
61020;SDS011;66055;43.496;3.710;2022-12-29T11:46:02;29.02;;;11.07;;
61020;SDS011;66055;43.496;3.710;2022-12-29T11:48:33;20.02;;;10.85;;
61020;SDS011;66055;43.496;3.710;2022-12-29T11:51:04;22.38;;;10.70;;
61020;SDS011;66055;43.496;3.710;2022-12-29T11:56:12;20.17;;;10.02;;
61020;SDS011;66055;43.496;3.710;2022-12-29T11:58:41;27.13;;;11.82;;
61020;SDS011;66055;43.496;3.710;2022-12-29T12:03:32;21.50;;;11.25;;
61020;SDS011;66055;43.496;3.710;2022-12-29T12:06:03;19.10;;;10.95;;
61020;SDS011;66055;43.496;3.710;2022-12-29T12:11:17;20.10;;;10.63;;
61020;SDS011;66055;43.496;3.710;2022-12-29T12:13:52;22.48;;;10.27;;
61020;SDS011;66055;43.496;3.710;2022-12-29T12:16:25;17.08;;;9.70;;
61020;SDS011;66055;43.496;3.710;2022-12-29T12:19:04;22.75;;;13.15;;
61020;SDS011;66055;43.496;3.710;2022-12-29T12:21:43;32.90;;;12.00;;
61020;SDS011;66055;43.496;3.710;2022-12-29T12:35:26;22.88;;;11.50;;
61020;SDS011;66055;43.496;3.710;2022-12-29T12:38:26;22.48;;;12.07;;
61020;SDS011;66055;43.496;3.710;2022-12-29T12:41:11;26.55;;;14.25;;
61020;SDS011;66055;43.496;3.710;2022-12-29T12:44:01;27.45;;;12.77;;
61020;SDS011;66055;43.496;3.710;2022-12-29T12:47:10;22.73;;;11.27;;
61020;SDS011;66055;43.496;3.710;2022-12-29T12:52:37;24.55;;;10.25;;
61020;SDS011;66055;43.496;3.710;2022-12-29T13:09:23;32.47;;;10.48;;
61020;SDS011;66055;43.496;3.710;2022-12-29T13:12:05;21.98;;;10.25;;
61020;SDS011;66055;43.496;3.710;2022-12-29T13:14:39;23.90;;;9.82;;
61020;SDS011;66055;43.496;3.710;2022-12-29T13:20:19;22.58;;;10.13;;
61020;SDS011;66055;43.496;3.710;2022-12-29T13:23:14;24.33;;;10.35;;
61020;SDS011;66055;43.496;3.710;2022-12-29T13:31:37;18.83;;;10.25;;
61020;SDS011;66055;43.496;3.710;2022-12-29T13:36:56;25.30;;;10.80;;
61020;SDS011;66055;43.496;3.710;2022-12-29T13:39:27;27.05;;;12.35;;
61020;SDS011;66055;43.496;3.710;2022-12-29T13:41:58;23.10;;;10.95;;
61020;SDS011;66055;43.496;3.710;2022-12-29T13:44:28;27.13;;;11.77;;
61020;SDS011;66055;43.496;3.710;2022-12-29T13:46:58;24.27;;;14.90;;
61020;SDS011;66055;43.496;3.710;2022-12-29T13:49:27;19.58;;;11.93;;
61020;SDS011;66055;43.496;3.710;2022-12-29T13:51:55;21.42;;;13.02;;
61020;SDS011;66055;43.496;3.710;2022-12-29T14:04:55;27.33;;;12.57;;
61020;SDS011;66055;43.496;3.710;2022-12-29T14:07:23;22.02;;;11.65;;
61020;SDS011;66055;43.496;3.710;2022-12-29T14:12:32;18.85;;;11.48;;
61020;SDS011;66055;43.496;3.710;2022-12-29T14:17:34;21.45;;;13.13;;
61020;SDS011;66055;43.496;3.710;2022-12-29T14:20:01;20.75;;;12.48;;
61020;SDS011;66055;43.496;3.710;2022-12-29T14:22:29;22.55;;;12.02;;
61020;SDS011;66055;43.496;3.710;2022-12-29T14:24:55;28.42;;;14.20;;
61020;SDS011;66055;43.496;3.710;2022-12-29T14:29:49;31.50;;;16.25;;
61020;SDS011;66055;43.496;3.710;2022-12-29T14:37:45;34.10;;;21.75;;
61020;SDS011;66055;43.496;3.710;2022-12-29T14:42:53;28.60;;;16.80;;
61020;SDS011;66055;43.496;3.710;2022-12-29T14:47:50;36.83;;;21.10;;
61020;SDS011;66055;43.496;3.710;2022-12-29T14:55:30;83.95;;;42.80;;
61020;SDS011;66055;43.496;3.710;2022-12-29T14:58:32;51.78;;;29.63;;
61020;SDS011;66055;43.496;3.710;2022-12-29T15:01:18;86.50;;;46.97;;
61020;SDS011;66055;43.496;3.710;2022-12-29T15:03:51;122.55;;;56.25;;
61020;SDS011;66055;43.496;3.710;2022-12-29T15:06:21;83.65;;;38.58;;
61020;SDS011;66055;43.496;3.710;2022-12-29T15:11:45;65.65;;;34.88;;
61020;SDS011;66055;43.496;3.710;2022-12-29T15:14:26;38.65;;;19.83;;
61020;SDS011;66055;43.496;3.710;2022-12-29T15:16:53;50.03;;;26.23;;
61020;SDS011;66055;43.496;3.710;2022-12-29T15:19:22;51.53;;;28.75;;
61020;SDS011;66055;43.496;3.710;2022-12-29T15:21:49;39.85;;;21.27;;
61020;SDS011;66055;43.496;3.710;2022-12-29T15:24:15;40.28;;;20.70;;
61020;SDS011;66055;43.496;3.710;2022-12-29T15:26:45;42.55;;;19.90;;
61020;SDS011;66055;43.496;3.710;2022-12-29T15:29:35;42.75;;;20.55;;
61020;SDS011;66055;43.496;3.710;2022-12-29T15:34:51;25.67;;;13.20;;
61020;SDS011;66055;43.496;3.710;2022-12-29T15:37:32;21.38;;;12.45;;
61020;SDS011;66055;43.496;3.710;2022-12-29T15:40:00;44.77;;;16.87;;
61020;SDS011;66055;43.496;3.710;2022-12-29T15:42:52;37.08;;;18.10;;
61020;SDS011;66055;43.496;3.710;2022-12-29T15:45:29;33.03;;;14.47;;
61020;SDS011;66055;43.496;3.710;2022-12-29T15:47:58;22.63;;;14.43;;
61020;SDS011;66055;43.496;3.710;2022-12-29T15:50:28;28.75;;;13.35;;
61020;SDS011;66055;43.496;3.710;2022-12-29T15:52:56;33.17;;;13.95;;
61020;SDS011;66055;43.496;3.710;2022-12-29T15:55:28;24.77;;;13.32;;
61020;SDS011;66055;43.496;3.710;2022-12-29T15:57:58;28.48;;;13.60;;
61020;SDS011;66055;43.496;3.710;2022-12-29T16:00:27;26.85;;;13.68;;
61020;SDS011;66055;43.496;3.710;2022-12-29T16:02:59;35.47;;;16.10;;
61020;SDS011;66055;43.496;3.710;2022-12-29T16:05:33;29.58;;;16.83;;
61020;SDS011;66055;43.496;3.710;2022-12-29T16:08:00;33.15;;;21.08;;
61020;SDS011;66055;43.496;3.710;2022-12-29T16:10:35;35.47;;;20.13;;
61020;SDS011;66055;43.496;3.710;2022-12-29T16:15:56;101.63;;;56.72;;
61020;SDS011;66055;43.496;3.710;2022-12-29T16:18:32;33.38;;;20.83;;
61020;SDS011;66055;43.496;3.710;2022-12-29T16:21:00;34.17;;;18.65;;
61020;SDS011;66055;43.496;3.710;2022-12-29T16:23:28;32.78;;;18.92;;
61020;SDS011;66055;43.496;3.710;2022-12-29T16:25:56;29.65;;;16.73;;
61020;SDS011;66055;43.496;3.710;2022-12-29T16:28:35;31.67;;;17.50;;
61020;SDS011;66055;43.496;3.710;2022-12-29T16:31:13;29.73;;;16.70;;
61020;SDS011;66055;43.496;3.710;2022-12-29T16:33:47;29.35;;;16.55;;
61020;SDS011;66055;43.496;3.710;2022-12-29T16:41:44;40.00;;;19.85;;
61020;SDS011;66055;43.496;3.710;2022-12-29T16:44:20;43.58;;;21.45;;
61020;SDS011;66055;43.496;3.710;2022-12-29T16:49:23;47.10;;;23.63;;
61020;SDS011;66055;43.496;3.710;2022-12-29T16:51:49;47.22;;;29.00;;
61020;SDS011;66055;43.496;3.710;2022-12-29T16:54:53;55.08;;;31.55;;
61020;SDS011;66055;43.496;3.710;2022-12-29T16:57:28;46.55;;;26.30;;
61020;SDS011;66055;43.496;3.710;2022-12-29T16:59:58;39.42;;;24.02;;
61020;SDS011;66055;43.496;3.710;2022-12-29T17:02:27;40.38;;;26.23;;
61020;SDS011;66055;43.496;3.710;2022-12-29T17:04:54;41.00;;;24.10;;
61020;SDS011;66055;43.496;3.710;2022-12-29T17:07:21;43.00;;;26.63;;
61020;SDS011;66055;43.496;3.710;2022-12-29T17:09:48;35.83;;;24.33;;
61020;SDS011;66055;43.496;3.710;2022-12-29T17:12:19;42.38;;;25.95;;
61020;SDS011;66055;43.496;3.710;2022-12-29T17:17:32;42.47;;;23.75;;
61020;SDS011;66055;43.496;3.710;2022-12-29T17:20:00;32.00;;;21.05;;
61020;SDS011;66055;43.496;3.710;2022-12-29T17:22:29;27.77;;;19.95;;
61020;SDS011;66055;43.496;3.710;2022-12-29T17:24:56;33.30;;;23.17;;
61020;SDS011;66055;43.496;3.710;2022-12-29T17:29:59;35.83;;;24.88;;
61020;SDS011;66055;43.496;3.710;2022-12-29T17:32:43;41.40;;;26.27;;
61020;SDS011;66055;43.496;3.710;2022-12-29T17:35:13;44.35;;;27.38;;
61020;SDS011;66055;43.496;3.710;2022-12-29T17:37:40;34.45;;;21.13;;
61020;SDS011;66055;43.496;3.710;2022-12-29T17:42:41;29.63;;;17.70;;
61020;SDS011;66055;43.496;3.710;2022-12-29T17:45:12;31.33;;;19.35;;
61020;SDS011;66055;43.496;3.710;2022-12-29T17:47:39;83.15;;;52.58;;
61020;SDS011;66055;43.496;3.710;2022-12-29T17:50:05;38.83;;;22.33;;
61020;SDS011;66055;43.496;3.710;2022-12-29T17:52:33;31.95;;;20.00;;
61020;SDS011;66055;43.496;3.710;2022-12-29T17:54:59;28.85;;;17.73;;
61020;SDS011;66055;43.496;3.710;2022-12-29T17:57:25;34.20;;;19.63;;
61020;SDS011;66055;43.496;3.710;2022-12-29T17:59:50;37.97;;;20.42;;
61020;SDS011;66055;43.496;3.710;2022-12-29T18:02:26;33.47;;;19.23;;
61020;SDS011;66055;43.496;3.710;2022-12-29T18:04:54;31.63;;;18.13;;
61020;SDS011;66055;43.496;3.710;2022-12-29T18:07:21;25.88;;;17.33;;
61020;SDS011;66055;43.496;3.710;2022-12-29T18:09:47;28.45;;;19.88;;
61020;SDS011;66055;43.496;3.710;2022-12-29T18:12:25;38.92;;;21.50;;
61020;SDS011;66055;43.496;3.710;2022-12-29T18:14:53;46.50;;;22.17;;
61020;SDS011;66055;43.496;3.710;2022-12-29T18:17:20;35.53;;;21.73;;
61020;SDS011;66055;43.496;3.710;2022-12-29T18:19:46;41.78;;;23.92;;
61020;SDS011;66055;43.496;3.710;2022-12-29T18:22:11;43.33;;;25.25;;
61020;SDS011;66055;43.496;3.710;2022-12-29T18:27:11;35.88;;;21.20;;
61020;SDS011;66055;43.496;3.710;2022-12-29T18:29:38;30.23;;;19.75;;